Time;durP1;ratioP1;P1;durP2;ratioP2;P2;SDS_P1;SDS_P2;PMS_P1;PMS_P2;Temp;Humidity;BMP_temperature;BMP_pressure;BME280_temperature;BME280_humidity;BME280_pressure;Samples;Min_cycle;Max_cycle;Signal;HPM_P1;HPM_P2
2022/01/08 00:00:45;;;;;;;13.27;7.45;;;;;;;2.30;100.00;100942.47;5199852;28;20037;-72
2022/01/08 00:03:17;;;;;;;14.85;7.45;;;;;;;2.31;100.00;100950.16;5202301;28;20023;-71
2022/01/08 00:05:48;;;;;;;12.10;7.38;;;;;;;2.28;100.00;100949.47;5200362;28;20030;-72
2022/01/08 00:08:19;;;;;;;15.65;7.78;;;;;;;2.19;100.00;100941.22;5200021;28;20026;-72
2022/01/08 00:10:54;;;;;;;13.32;7.55;;;;;;;2.21;100.00;100948.09;5200182;28;20026;-72
2022/01/08 00:13:26;;;;;;;13.82;7.38;;;;;;;2.19;100.00;100945.56;5201469;28;20033;-72
2022/01/08 00:15:57;;;;;;;16.80;7.95;;;;;;;2.18;100.00;100955.06;5197837;28;20418;-72
2022/01/08 00:18:29;;;;;;;12.48;7.25;;;;;;;2.15;100.00;100959.53;5202690;28;20026;-72
2022/01/08 00:21:00;;;;;;;13.73;7.05;;;;;;;2.14;100.00;100961.28;5198129;28;20032;-72
2022/01/08 00:23:31;;;;;;;15.43;7.95;;;;;;;2.12;100.00;100965.72;5198614;28;20037;-71
2022/01/08 00:26:04;;;;;;;12.82;7.75;;;;;;;2.05;100.00;100963.50;5198136;28;20473;-71
2022/01/08 00:28:35;;;;;;;13.27;8.30;;;;;;;2.06;100.00;100960.81;5199073;28;20036;-71
2022/01/08 00:31:10;;;;;;;12.13;7.13;;;;;;;2.01;100.00;100960.22;5184642;28;20407;-71
2022/01/08 00:33:41;;;;;;;9.50;6.80;;;;;;;1.94;100.00;100956.25;5207210;28;20380;-72
2022/01/08 00:36:13;;;;;;;11.57;7.30;;;;;;;1.95;100.00;100970.84;5203650;28;20044;-71
2022/01/08 00:38:44;;;;;;;11.85;7.65;;;;;;;1.89;100.00;100963.34;5206932;28;20033;-71
2022/01/08 00:41:16;;;;;;;12.38;7.45;;;;;;;1.88;100.00;100962.53;5206511;28;20026;-71
2022/01/08 00:43:47;;;;;;;14.80;9.07;;;;;;;1.87;100.00;100966.03;5207250;28;20026;-71
2022/01/08 00:46:18;;;;;;;12.70;7.43;;;;;;;1.84;100.00;100965.31;5204720;28;20033;-71
2022/01/08 00:48:50;;;;;;;12.35;7.70;;;;;;;1.84;100.00;100983.41;5202900;28;20104;-71
2022/01/08 00:51:21;;;;;;;12.27;7.45;;;;;;;1.86;100.00;100985.03;5205692;28;20057;-71
2022/01/08 00:53:52;;;;;;;9.25;6.85;;;;;;;1.90;100.00;100986.56;5204727;28;20029;-71
2022/01/08 00:56:24;;;;;;;14.15;8.10;;;;;;;1.93;100.00;100995.88;5205740;28;20060;-71
2022/01/08 00:58:55;;;;;;;12.40;7.88;;;;;;;1.90;100.00;100985.72;5200916;28;20479;-71
2022/01/08 01:01:26;;;;;;;17.52;8.13;;;;;;;1.93;100.00;100990.72;5202291;28;20450;-71
2022/01/08 01:03:58;;;;;;;14.35;8.27;;;;;;;1.88;100.00;100983.19;5204835;28;20022;-71
2022/01/08 01:06:29;;;;;;;12.43;8.32;;;;;;;1.94;100.00;100989.84;5205270;28;20035;-71
2022/01/08 01:09:00;;;;;;;15.50;7.65;;;;;;;1.94;100.00;100987.25;5204742;28;20606;-71
2022/01/08 01:11:31;;;;;;;11.93;8.00;;;;;;;1.93;100.00;100976.09;5202280;28;20513;-71
2022/01/08 01:14:03;;;;;;;15.68;9.13;;;;;;;1.93;100.00;100976.09;5204607;28;20028;-71
2022/01/08 01:16:34;;;;;;;13.10;8.32;;;;;;;1.89;100.00;100984.03;5204697;28;20521;-71
2022/01/08 01:19:06;;;;;;;15.48;8.52;;;;;;;1.89;100.00;100981.44;5204382;28;20030;-71
2022/01/08 01:21:37;;;;;;;15.40;8.70;;;;;;;1.88;100.00;100977.19;5202293;28;20108;-71
2022/01/08 01:24:15;;;;;;;11.05;8.35;;;;;;;1.82;100.00;100974.88;5203512;28;20026;-71
2022/01/08 01:27:15;;;;;;;10.80;8.55;;;;;;;1.78;100.00;100973.34;5204499;28;20540;-71
2022/01/08 01:48:56;;;;;;;14.75;10.65;;;;;;;1.62;100.00;100999.03;5203387;28;20038;-71
2022/01/08 01:51:27;;;;;;;13.70;9.55;;;;;;;1.61;100.00;101000.78;5203545;28;20018;-70
2022/01/08 01:53:58;;;;;;;15.30;11.13;;;;;;;1.54;100.00;100986.47;5202127;28;20026;-69
2022/01/08 01:56:30;;;;;;;18.45;11.60;;;;;;;1.57;100.00;100990.69;5205160;28;20084;-69
2022/01/08 01:59:02;;;;;;;20.98;12.23;;;;;;;1.55;100.00;100993.31;5185237;28;20045;-69
2022/01/08 02:01:33;;;;;;;16.67;11.30;;;;;;;1.54;100.00;100993.38;5182966;28;20134;-69
2022/01/08 02:04:04;;;;;;;15.52;12.27;;;;;;;1.54;100.00;100996.81;5203198;28;20123;-69
2022/01/08 02:06:36;;;;;;;17.65;12.18;;;;;;;1.51;100.00;100989.19;5202962;28;20354;-69
2022/01/08 02:09:07;;;;;;;20.33;12.05;;;;;;;1.52;100.00;100990.88;5203277;28;20495;-69
2022/01/08 02:11:59;;;;;;;16.65;11.95;;;;;;;1.71;100.00;100985.72;5200382;28;20030;-69
2022/01/08 02:14:37;;;;;;;21.83;12.68;;;;;;;1.59;100.00;100997.47;5185474;28;20120;-69
2022/01/08 02:17:08;;;;;;;21.30;12.60;;;;;;;1.48;100.00;100998.81;5203471;28;20495;-69
2022/01/08 02:19:41;;;;;;;19.20;12.38;;;;;;;1.47;100.00;100992.81;5204562;28;20033;-69
2022/01/08 02:22:15;;;;;;;17.60;11.98;;;;;;;1.46;100.00;100996.31;5202357;28;20026;-69
2022/01/08 02:24:48;;;;;;;19.05;11.73;;;;;;;1.46;100.00;100999.72;5200629;28;20026;-69
2022/01/08 02:27:19;;;;;;;19.35;12.38;;;;;;;1.45;100.00;100997.22;5200306;28;20076;-69
2022/01/08 02:29:52;;;;;;;18.17;12.90;;;;;;;1.49;100.00;101003.94;5187657;28;20045;-69
2022/01/08 02:32:27;;;;;;;19.98;12.90;;;;;;;1.48;100.00;101007.44;5201831;28;20034;-69
2022/01/08 02:34:59;;;;;;;19.85;12.48;;;;;;;1.46;100.00;101006.63;5201423;28;20033;-69
2022/01/08 02:37:31;;;;;;;19.15;12.57;;;;;;;1.44;100.00;101008.47;5200058;28;20471;-70
2022/01/08 02:40:04;;;;;;;23.52;13.73;;;;;;;1.45;100.00;101010.13;5201335;28;20034;-70
2022/01/08 02:42:39;;;;;;;19.60;12.35;;;;;;;1.37;100.00;101000.16;5196576;28;20033;-70
2022/01/08 02:45:10;;;;;;;20.33;13.10;;;;;;;1.49;100.00;101016.84;5202388;28;20030;-70
2022/01/08 02:47:42;;;;;;;22.33;13.25;;;;;;;1.50;100.00;101013.34;5202429;28;20050;-70
2022/01/08 02:50:14;;;;;;;21.17;13.15;;;;;;;1.54;100.00;101021.78;5204587;28;20040;-70
2022/01/08 02:52:46;;;;;;;23.73;12.93;;;;;;;1.48;100.00;101016.88;5198951;28;20514;-70
2022/01/08 02:55:20;;;;;;;17.02;12.60;;;;;;;1.54;100.00;101011.47;5202721;28;20041;-70
2022/01/08 02:57:51;;;;;;;20.60;12.75;;;;;;;1.53;100.00;101013.22;5196553;28;20030;-70
2022/01/08 03:00:23;;;;;;;19.33;12.73;;;;;;;1.53;100.00;101004.63;5199284;28;20782;-70
2022/01/08 03:02:54;;;;;;;21.63;13.05;;;;;;;1.56;100.00;101009.66;5200951;28;20049;-70
2022/01/08 03:05:27;;;;;;;22.48;13.15;;;;;;;1.57;100.00;101014.75;5201624;28;20037;-70
2022/01/08 03:07:59;;;;;;;21.55;12.77;;;;;;;1.55;100.00;101011.38;5201376;28;20022;-70
2022/01/08 03:10:31;;;;;;;20.48;13.13;;;;;;;1.56;100.00;101018.25;5200179;28;20029;-70
2022/01/08 03:13:04;;;;;;;16.80;12.23;;;;;;;1.59;100.00;101007.78;5197378;28;20088;-70
2022/01/08 03:15:37;;;;;;;18.27;11.95;;;;;;;1.57;100.00;101012.16;5199144;28;20022;-70
2022/01/08 03:18:08;;;;;;;23.35;13.07;;;;;;;1.47;100.00;100995.41;5200822;28;20054;-71
2022/01/08 03:20:47;;;;;;;21.67;12.75;;;;;;;1.53;100.00;101014.97;5202744;28;20033;-71
2022/01/08 03:23:18;;;;;;;20.40;12.60;;;;;;;1.52;100.00;101010.72;5202187;28;20453;-71
2022/01/08 03:25:50;;;;;;;20.77;12.32;;;;;;;1.54;100.00;101012.28;5203959;28;20670;-71
2022/01/08 03:28:21;;;;;;;24.52;12.32;;;;;;;1.49;100.00;101016.84;5201389;28;20028;-71
2022/01/08 03:30:52;;;;;;;20.70;12.38;;;;;;;1.52;100.00;101018.44;5200658;28;20053;-71
2022/01/08 03:33:23;;;;;;;18.65;11.85;;;;;;;1.48;100.00;101009.13;5202873;28;20038;-70
2022/01/08 03:35:55;;;;;;;23.65;12.73;;;;;;;1.51;100.00;101015.00;5184289;28;20026;-70
2022/01/08 03:38:26;;;;;;;16.85;11.27;;;;;;;1.50;100.00;101007.34;5201622;28;20057;-71
2022/01/08 03:40:58;;;;;;;18.73;11.48;;;;;;;1.48;100.00;101015.16;5200821;28;20026;-71
2022/01/08 03:43:29;;;;;;;20.42;11.85;;;;;;;1.45;100.00;101013.56;5201879;28;20092;-71
2022/01/08 03:46:03;;;;;;;18.33;11.98;;;;;;;1.47;100.00;101013.47;5197030;28;20506;-71
2022/01/08 03:48:46;;;;;;;22.33;13.18;;;;;;;1.43;100.00;101005.03;5200002;28;20057;-71
2022/01/08 03:51:17;;;;;;;20.27;10.75;;;;;;;1.50;100.00;101007.34;5202195;28;20088;-71
2022/01/08 03:53:48;;;;;;;20.52;11.23;;;;;;;1.48;100.00;101007.44;5201225;28;20549;-71
2022/01/08 03:56:20;;;;;;;17.95;11.27;;;;;;;1.47;100.00;101013.47;5198589;28;20049;-71
2022/01/08 03:58:51;;;;;;;16.73;10.43;;;;;;;1.50;100.00;101015.09;5200534;28;20034;-71
2022/01/08 04:01:22;;;;;;;20.08;11.75;;;;;;;1.42;100.00;100999.94;5201117;28;20729;-71
2022/01/08 04:03:54;;;;;;;22.30;11.02;;;;;;;1.49;100.00;101021.16;5201156;28;20411;-71
2022/01/08 04:06:25;;;;;;;17.88;10.13;;;;;;;1.48;100.00;101033.25;5203829;28;20648;-71
2022/01/08 04:08:58;;;;;;;19.67;10.43;;;;;;;1.45;100.00;101029.03;5205659;28;20026;-71
2022/01/08 04:11:29;;;;;;;19.75;10.82;;;;;;;1.40;100.00;101027.56;5206441;28;20030;-71
2022/01/08 04:14:00;;;;;;;16.17;9.85;;;;;;;1.45;100.00;101035.94;5204784;28;20568;-71
2022/01/08 04:16:34;;;;;;;22.95;10.18;;;;;;;1.44;100.00;101026.53;5189629;28;20025;-71
2022/01/08 04:19:06;;;;;;;18.23;10.18;;;;;;;1.40;100.00;101025.84;5205961;28;20026;-71
2022/01/08 04:24:27;;;;;;;15.90;9.45;;;;;;;1.44;100.00;101029.13;5205878;28;20057;-71
2022/01/08 04:26:58;;;;;;;20.13;10.52;;;;;;;1.35;100.00;101025.19;5203607;28;20121;-71
2022/01/08 04:29:30;;;;;;;16.30;9.93;;;;;;;1.40;100.00;101038.75;5206127;28;20026;-71
2022/01/08 04:32:01;;;;;;;21.30;11.27;;;;;;;1.38;100.00;101043.13;5206018;28;20036;-71
2022/01/08 04:34:33;;;;;;;17.13;11.13;;;;;;;1.41;100.00;101050.72;5205647;28;20430;-71
2022/01/08 04:37:04;;;;;;;17.10;10.35;;;;;;;1.44;100.00;101058.34;5204695;28;20088;-71
2022/01/08 04:39:35;;;;;;;21.98;11.48;;;;;;;1.50;100.00;101054.66;5205304;28;20080;-71
2022/01/08 04:42:07;;;;;;;15.30;10.07;;;;;;;1.52;100.00;101054.59;5206449;28;20021;-71
2022/01/08 04:44:38;;;;;;;18.38;11.38;;;;;;;1.54;100.00;101060.53;5203726;28;20491;-71
2022/01/08 04:47:09;;;;;;;19.90;10.60;;;;;;;1.56;100.00;101058.72;5202209;28;20482;-71
2022/01/08 04:49:41;;;;;;;16.23;9.77;;;;;;;1.55;100.00;101055.28;5189034;28;20113;-71
2022/01/08 04:52:12;;;;;;;19.27;10.30;;;;;;;1.54;100.00;101053.59;5205574;28;20068;-71
2022/01/08 04:54:43;;;;;;;19.55;9.65;;;;;;;1.54;100.00;101057.94;5204849;28;20041;-70
2022/01/08 04:57:15;;;;;;;17.13;9.35;;;;;;;1.49;100.00;101055.56;5206054;28;20034;-70
2022/01/08 04:59:46;;;;;;;16.25;10.05;;;;;;;1.51;100.00;101065.81;5202353;28;20068;-70
2022/01/08 05:02:17;;;;;;;19.42;9.85;;;;;;;1.52;100.00;101072.69;5201847;28;20165;-70
2022/01/08 05:04:48;;;;;;;15.68;9.57;;;;;;;1.51;100.00;101064.06;5203674;28;20046;-70
2022/01/08 05:07:20;;;;;;;15.68;9.30;;;;;;;1.51;100.00;101078.72;5205176;28;20042;-70
2022/01/08 05:09:51;;;;;;;22.35;9.27;;;;;;;1.48;100.00;101076.25;5206296;28;20045;-70
2022/01/08 05:12:23;;;;;;;19.08;9.18;;;;;;;1.44;100.00;101070.44;5203939;28;20029;-70
2022/01/08 05:14:56;;;;;;;15.55;8.85;;;;;;;1.45;100.00;101085.00;5205997;28;21357;-70
2022/01/08 05:17:32;;;;;;;18.58;9.52;;;;;;;1.45;100.00;101087.59;5201288;28;20022;-70
2022/01/08 05:20:10;;;;;;;21.13;9.38;;;;;;;1.46;100.00;101087.50;5203714;28;20037;-70
2022/01/08 05:25:21;;;;;;;16.25;9.40;;;;;;;1.39;100.00;101069.75;5204779;28;20057;-71
2022/01/08 05:27:53;;;;;;;16.80;9.18;;;;;;;1.44;100.00;101079.00;5203640;28;20026;-71
2022/01/08 05:30:26;;;;;;;12.93;8.52;;;;;;;1.52;100.00;101080.41;5203690;28;20522;-71
2022/01/08 05:32:57;;;;;;;;;;;;;;;1.92;100.00;101075.16;5204792;28;20036;-71
2022/01/08 05:35:29;;;;;;;16.17;8.85;;;;;;;1.59;100.00;101077.50;5185264;28;19917;-71
2022/01/08 05:38:00;;;;;;;21.65;8.45;;;;;;;1.60;100.00;101079.16;5202396;28;20026;-70
2022/01/08 05:40:32;;;;;;;17.48;8.55;;;;;;;1.59;100.00;101069.75;5203890;28;20033;-70
2022/01/08 05:43:03;;;;;;;15.90;9.20;;;;;;;1.55;100.00;101060.44;5206346;28;20029;-70
2022/01/08 05:45:35;;;;;;;17.60;8.73;;;;;;;1.50;100.00;101064.97;5186086;28;20048;-70
2022/01/08 05:48:07;;;;;;;15.13;8.27;;;;;;;1.51;100.00;101074.38;5201410;28;20487;-70
2022/01/08 05:50:38;;;;;;;16.60;8.23;;;;;;;1.49;100.00;101081.38;5205120;28;20030;-70
2022/01/08 05:53:10;;;;;;;16.42;9.02;;;;;;;1.46;100.00;101084.94;5203671;28;20533;-70
2022/01/08 05:55:41;;;;;;;16.08;8.65;;;;;;;1.46;100.00;101081.50;5202649;28;20053;-70
2022/01/08 05:58:13;;;;;;;16.02;8.45;;;;;;;1.45;100.00;101088.41;5203999;28;20092;-70
2022/01/08 06:00:44;;;;;;;14.27;8.10;;;;;;;1.46;100.00;101097.00;5203118;28;20028;-70
2022/01/08 06:03:16;;;;;;;13.88;8.27;;;;;;;1.44;100.00;101093.66;5202671;28;20407;-70
2022/01/08 06:05:47;;;;;;;12.10;7.15;;;;;;;1.44;100.00;101097.06;5201841;28;20037;-70
2022/01/08 06:08:19;;;;;;;11.77;7.93;;;;;;;1.47;100.00;101106.41;5203940;28;20446;-70
2022/01/08 06:10:50;;;;;;;14.45;8.05;;;;;;;1.46;100.00;101107.31;5206213;28;20045;-70
2022/01/08 06:13:21;;;;;;;16.92;8.20;;;;;;;1.48;100.00;101109.81;5184923;28;20350;-69
2022/01/08 06:15:53;;;;;;;17.23;8.27;;;;;;;1.48;100.00;101105.53;5204460;28;20026;-69
2022/01/08 06:18:24;;;;;;;16.55;8.52;;;;;;;1.49;100.00;101101.22;5201360;28;20117;-69
2022/01/08 06:20:59;;;;;;;15.40;8.02;;;;;;;1.50;100.00;101106.28;5203839;28;20037;-69
2022/01/08 06:23:30;;;;;;;14.35;8.35;;;;;;;1.53;100.00;101115.66;5201739;28;20033;-69
2022/01/08 06:26:02;;;;;;;13.77;7.95;;;;;;;1.53;100.00;101110.50;5202535;28;20026;-69
2022/01/08 06:28:33;;;;;;;15.18;8.65;;;;;;;1.51;100.00;101102.78;5201059;28;20034;-69
2022/01/08 06:31:04;;;;;;;13.45;8.95;;;;;;;1.56;100.00;101102.63;5200887;28;20295;-69
2022/01/08 06:33:36;;;;;;;18.73;9.00;;;;;;;1.52;100.00;101107.06;5200721;28;20318;-69
2022/01/08 06:36:07;;;;;;;15.52;9.40;;;;;;;1.55;100.00;101101.75;5201260;28;20121;-69
2022/01/08 06:38:38;;;;;;;14.15;8.80;;;;;;;1.57;100.00;101097.38;5200947;28;20026;-69
2022/01/08 06:41:10;;;;;;;16.17;9.15;;;;;;;1.55;100.00;101083.69;5203207;28;20026;-69
2022/01/08 06:43:41;;;;;;;21.50;9.40;;;;;;;1.58;100.00;101082.72;5203863;28;20116;-69
2022/01/08 06:46:13;;;;;;;16.75;8.77;;;;;;;1.56;100.00;101080.22;5203879;28;20270;-69
2022/01/08 06:48:44;;;;;;;14.88;8.30;;;;;;;1.54;100.00;101079.44;5203621;28;20050;-69
2022/01/08 06:51:16;;;;;;;13.75;8.57;;;;;;;1.53;100.00;101082.94;5202982;28;20487;-69
2022/01/08 06:53:47;;;;;;;17.63;9.07;;;;;;;1.50;100.00;101074.47;5202919;28;20022;-69
2022/01/08 06:56:19;;;;;;;12.90;8.77;;;;;;;1.52;100.00;101073.50;5203133;28;20038;-72
2022/01/08 06:58:50;;;;;;;15.18;7.75;;;;;;;1.45;100.00;101061.78;5199782;28;20084;-72
2022/01/08 07:01:22;;;;;;;16.23;8.63;;;;;;;1.48;100.00;101081.44;5200841;28;20053;-69
2022/01/08 07:03:55;;;;;;;20.08;8.95;;;;;;;1.45;100.00;101074.69;5194058;28;20029;-69
2022/01/08 07:06:26;;;;;;;17.77;8.52;;;;;;;1.47;100.00;101083.19;5203347;28;20034;-69
2022/01/08 07:08:57;;;;;;;16.42;8.93;;;;;;;1.46;100.00;101079.75;5203382;28;20030;-68
2022/01/08 07:11:29;;;;;;;17.83;8.50;;;;;;;1.42;100.00;101074.81;5183789;28;20022;-69
2022/01/08 07:14:01;;;;;;;16.48;8.60;;;;;;;1.46;100.00;101077.19;5203421;28;20033;-68
2022/01/08 07:16:33;;;;;;;16.02;9.18;;;;;;;1.45;100.00;101072.94;5200835;28;20586;-70
2022/01/08 07:19:04;;;;;;;14.77;7.93;;;;;;;1.45;100.00;101072.94;5199000;28;20032;-70
2022/01/08 07:21:35;;;;;;;16.83;8.88;;;;;;;1.42;100.00;101078.22;5200024;28;20121;-70
2022/01/08 07:24:07;;;;;;;13.13;8.85;;;;;;;1.42;100.00;101080.81;5200946;28;20413;-69
2022/01/08 07:26:38;;;;;;;16.55;9.15;;;;;;;1.45;100.00;101085.00;5203224;28;20032;-70
2022/01/08 07:29:09;;;;;;;13.90;8.32;;;;;;;1.42;100.00;101078.22;5203602;28;20034;-70
2022/01/08 07:31:41;;;;;;;17.27;9.98;;;;;;;1.44;100.00;101084.16;5202059;28;20030;-70
2022/01/08 07:34:12;;;;;;;16.65;9.45;;;;;;;1.44;100.00;101073.84;5201577;28;20026;-70
2022/01/08 07:36:43;;;;;;;17.05;8.55;;;;;;;1.49;100.00;101083.13;5201348;28;20049;-69
2022/01/08 07:39:15;;;;;;;18.30;9.82;;;;;;;1.47;100.00;101080.59;5201461;28;20022;-69
2022/01/08 07:41:46;;;;;;;15.23;8.57;;;;;;;1.52;100.00;101086.41;5200828;28;20029;-70
2022/01/08 07:44:17;;;;;;;13.73;8.80;;;;;;;1.49;100.00;101081.38;5200943;28;20030;-70
2022/01/08 07:46:49;;;;;;;23.50;10.00;;;;;;;1.51;100.00;101082.13;5200429;28;20030;-70
2022/01/08 07:49:20;;;;;;;20.48;9.82;;;;;;;1.55;100.00;101077.69;5202007;28;20030;-68
2022/01/08 07:51:51;;;;;;;16.75;9.45;;;;;;;1.53;100.00;101074.34;5201740;28;20041;-70
2022/01/08 07:54:23;;;;;;;20.88;10.05;;;;;;;1.57;100.00;101068.97;5200085;28;20398;-69
2022/01/08 07:56:54;;;;;;;19.92;9.80;;;;;;;1.59;100.00;101069.75;5199565;28;20029;-69
2022/01/08 07:59:26;;;;;;;15.02;9.07;;;;;;;1.64;100.00;101072.97;5196158;28;20040;-68
2022/01/08 08:01:57;;;;;;;26.30;10.32;;;;;;;1.66;100.00;101057.38;5201729;28;20064;-69
2022/01/08 08:04:28;;;;;;;18.08;10.70;;;;;;;1.64;100.00;101049.72;5199964;28;20018;-68
2022/01/08 08:07:00;;;;;;;21.27;10.57;;;;;;;1.72;100.00;101059.72;5199708;28;20022;-70
2022/01/08 08:09:31;;;;;;;19.67;10.40;;;;;;;1.72;100.00;101058.88;5182517;28;20479;-70
2022/01/08 08:12:04;;;;;;;16.08;9.38;;;;;;;1.75;100.00;101057.00;5199895;28;20049;-70
2022/01/08 08:14:35;;;;;;;;;;;;;;;2.16;100.00;101055.13;5199390;28;20068;-69
2022/01/08 08:17:07;;;;;;;14.47;9.83;;;;;;;1.86;100.00;101056.53;5201489;28;20863;-70
2022/01/08 08:19:38;;;;;;;16.10;10.25;;;;;;;1.85;100.00;101050.50;5202452;28;20451;-70
2022/01/08 08:22:09;;;;;;;19.98;11.32;;;;;;;1.88;100.00;101052.09;5201197;28;20015;-68
2022/01/08 08:24:40;;;;;;;20.17;11.40;;;;;;;1.86;100.00;101039.28;5199107;28;20125;-69
2022/01/08 08:27:12;;;;;;;21.38;12.13;;;;;;;1.90;100.00;101043.41;5202659;28;20022;-69
2022/01/08 08:29:43;;;;;;;23.88;12.40;;;;;;;1.92;100.00;101032.97;5190641;28;20035;-68
2022/01/08 08:32:14;;;;;;;17.98;11.93;;;;;;;1.94;100.00;101042.34;5178611;28;20452;-69
2022/01/08 08:34:46;;;;;;;20.25;12.85;;;;;;;1.97;100.00;101032.75;5199377;28;20395;-69
2022/01/08 08:37:18;;;;;;;21.25;11.82;;;;;;;1.99;100.00;101036.97;5197320;28;20025;-71
2022/01/08 08:39:49;;;;;;;24.95;12.93;;;;;;;1.99;100.00;101036.97;5198226;28;20092;-69
2022/01/08 08:42:21;;;;;;;20.48;12.65;;;;;;;2.01;100.00;101036.88;5182369;28;20029;-70
2022/01/08 08:44:52;;;;;;;24.45;13.32;;;;;;;2.05;100.00;101039.28;5198788;28;20092;-71
2022/01/08 08:47:23;;;;;;;33.17;14.52;;;;;;;2.11;100.00;101031.22;5197698;28;20129;-71
2022/01/08 08:49:54;;;;;;;27.02;15.05;;;;;;;2.11;100.00;101032.97;5203121;28;20023;-71
2022/01/08 08:52:26;;;;;;;21.80;14.90;;;;;;;2.14;100.00;101030.25;5201412;28;20033;-71
2022/01/08 08:54:59;;;;;;;23.10;14.50;;;;;;;2.19;100.00;101036.84;5204453;28;20061;-71
2022/01/08 08:57:30;;;;;;;20.92;15.38;;;;;;;2.17;100.00;101030.09;5204383;28;20492;-71
2022/01/08 09:00:03;;;;;;;25.15;15.77;;;;;;;2.24;100.00;101030.66;5201040;28;20034;-69
2022/01/08 09:02:34;;;;;;;24.83;16.02;;;;;;;2.28;100.00;101027.84;5201862;28;20341;-70
2022/01/08 09:05:06;;;;;;;24.35;16.80;;;;;;;2.25;100.00;101022.81;5202906;28;20034;-71
2022/01/08 09:07:39;;;;;;;27.30;15.70;;;;;;;2.30;100.00;101022.59;5201987;28;20040;-71
2022/01/08 09:10:12;;;;;;;31.07;16.47;;;;;;;2.32;100.00;101029.38;5186173;28;20029;-71
2022/01/08 09:12:43;;;;;;;44.05;18.50;;;;;;;2.37;100.00;101037.75;5203670;28;20451;-70
2022/01/08 09:15:15;;;;;;;26.10;16.50;;;;;;;2.40;100.00;101029.00;5197299;28;20353;-71
2022/01/08 09:17:48;;;;;;;22.13;16.33;;;;;;;2.45;100.00;101027.03;5203127;28;20034;-70
2022/01/08 09:20:20;;;;;;;31.55;16.95;;;;;;;2.47;100.00;101033.00;5203775;28;20450;-72
2022/01/08 09:22:51;;;;;;;24.35;16.45;;;;;;;2.46;100.00;101027.88;5203990;28;20026;-72
2022/01/08 09:25:23;;;;;;;26.92;17.20;;;;;;;2.49;100.00;101015.63;5204258;28;20022;-72
2022/01/08 09:27:54;;;;;;;25.77;16.02;;;;;;;2.54;100.00;101008.50;5201758;28;20030;-71
2022/01/08 09:30:26;;;;;;;26.73;16.58;;;;;;;2.48;100.00;101001.03;5202587;28;20038;-70
2022/01/08 09:32:57;;;;;;;23.50;16.98;;;;;;;2.54;100.00;101003.34;5204022;28;20394;-71
2022/01/08 09:35:29;;;;;;;23.75;17.08;;;;;;;2.59;100.00;100995.34;5204593;28;20623;-71
2022/01/08 09:38:00;;;;;;;24.40;16.52;;;;;;;2.57;100.00;100977.31;5203109;28;20196;-70
2022/01/08 09:40:31;;;;;;;30.48;17.30;;;;;;;2.60;100.00;100990.09;5203408;28;20037;-71
2022/01/08 09:43:04;;;;;;;26.02;16.08;;;;;;;2.66;100.00;100981.19;5205231;28;20033;-72
2022/01/08 09:45:35;;;;;;;29.38;16.55;;;;;;;2.63;100.00;100981.34;5200711;28;20034;-72
2022/01/08 09:48:06;;;;;;;27.98;17.13;;;;;;;2.66;100.00;100976.84;5201953;28;20048;-72
2022/01/08 09:50:40;;;;;;;33.40;17.58;;;;;;;2.79;100.00;100971.06;5201037;28;20034;-72
2022/01/08 09:53:12;;;;;;;30.27;17.80;;;;;;;2.76;100.00;100971.22;5203049;28;20072;-72
2022/01/08 09:55:43;;;;;;;27.48;16.83;;;;;;;2.78;100.00;100964.22;5200937;28;20112;-72
2022/01/08 09:58:14;;;;;;;30.08;17.40;;;;;;;2.83;100.00;100949.28;5201037;28;20502;-72
2022/01/08 10:00:46;;;;;;;30.83;16.75;;;;;;;2.85;100.00;100952.66;5200014;28;20399;-70
2022/01/08 10:03:21;;;;;;;25.77;17.77;;;;;;;2.90;100.00;100948.91;5202680;28;20376;-71
2022/01/08 10:05:56;;;;;;;26.67;17.73;;;;;;;2.91;100.00;100931.63;5200602;28;20035;-71
2022/01/08 10:08:30;;;;;;;28.05;16.20;;;;;;;2.85;100.00;100909.50;5201982;28;20041;-70
2022/01/08 10:11:06;;;;;;;24.83;16.67;;;;;;;2.98;100.00;100917.47;5205362;28;20382;-71
2022/01/08 10:13:40;;;;;;;28.10;17.02;;;;;;;3.03;100.00;100907.72;5201718;28;20030;-71
2022/01/08 10:19:23;;;;;;;30.05;16.33;;;;;;;3.16;100.00;100893.19;5202363;28;20117;-72
2022/01/08 10:21:55;;;;;;;26.55;16.83;;;;;;;3.13;100.00;100879.59;5200687;28;20392;-72
2022/01/08 10:24:28;;;;;;;27.50;17.38;;;;;;;3.17;100.00;100873.31;5201669;28;20044;-71
2022/01/08 10:27:05;;;;;;;33.22;17.90;;;;;;;3.16;100.00;100853.53;5202673;28;20399;-71
2022/01/08 10:29:36;;;;;;;25.83;17.00;;;;;;;3.21;100.00;100864.47;5196408;28;20030;-71
2022/01/08 10:32:08;;;;;;;23.95;15.55;;;;;;;3.22;100.00;100862.72;5195401;28;20224;-71
2022/01/08 10:34:48;;;;;;;27.65;16.00;;;;;;;3.35;100.00;100855.97;5199974;28;20045;-70
2022/01/08 10:37:19;;;;;;;23.20;15.77;;;;;;;3.32;100.00;100856.13;5198442;28;20476;-71
2022/01/08 10:39:54;;;;;;;23.65;16.38;;;;;;;3.38;100.00;100848.03;5176734;28;20026;-70
2022/01/08 10:42:26;;;;;;;25.88;15.90;;;;;;;3.38;100.00;100851.47;5201548;28;20042;-72
2022/01/08 10:44:57;;;;;;;25.48;15.90;;;;;;;3.42;100.00;100828.81;5201484;28;20543;-71
2022/01/08 10:47:28;;;;;;;28.30;15.88;;;;;;;3.46;100.00;100829.50;5198766;28;20499;-72
2022/01/08 10:50:05;;;;;;;29.02;15.88;;;;;;;3.49;100.00;100821.56;5199182;28;20088;-72
2022/01/08 10:52:48;;;;;;;20.88;14.55;;;;;;;3.54;100.00;100802.22;5202319;28;20033;-71
2022/01/08 10:55:31;;;;;;;27.67;16.00;;;;;;;3.64;100.00;100798.22;5197746;28;20045;-71
2022/01/08 10:58:02;;;;;;;24.38;15.43;;;;;;;3.50;100.00;100792.13;5197581;28;20297;-72
2022/01/08 11:00:33;;;;;;;23.55;14.77;;;;;;;3.57;100.00;100794.28;5183884;28;20048;-71
2022/01/08 11:03:04;;;;;;;23.50;15.30;;;;;;;3.53;100.00;100785.03;5200501;28;20452;-72
2022/01/08 11:06:02;;;;;;;20.35;13.93;;;;;;;3.72;100.00;100787.41;5202578;28;20030;-72
2022/01/08 11:08:33;;;;;;;22.15;12.68;;;;;;;3.59;100.00;100774.31;5202164;28;20030;-72
2022/01/08 11:11:05;;;;;;;23.45;12.20;;;;;;;3.62;100.00;100771.53;5202658;28;20033;-71
2022/01/08 11:13:38;;;;;;;23.55;11.90;;;;;;;3.72;100.00;100758.06;5201137;28;20034;-71
2022/01/08 11:16:09;;;;;;;18.08;12.18;;;;;;;3.76;100.00;100744.84;5201711;28;20356;-71
2022/01/08 11:18:41;;;;;;;22.73;12.40;;;;;;;3.78;100.00;100739.56;5199260;28;20659;-72
2022/01/08 11:21:12;;;;;;;18.45;11.63;;;;;;;3.79;100.00;100736.91;5199398;28;20069;-71
2022/01/08 11:23:44;;;;;;;14.80;10.38;;;;;;;3.79;100.00;100720.50;5202038;28;20030;-72
2022/01/08 11:26:15;;;;;;;19.98;10.65;;;;;;;3.85;100.00;100726.16;5198937;28;20057;-72
2022/01/08 11:28:49;;;;;;;14.77;9.57;;;;;;;3.96;100.00;100707.41;5200724;28;20026;-73
2022/01/08 11:31:21;;;;;;;13.55;9.55;;;;;;;3.91;100.00;100709.44;5200602;28;20072;-70
2022/01/08 11:33:56;;;;;;;14.27;9.75;;;;;;;3.94;100.00;100695.44;5180490;28;20036;-72
2022/01/08 11:36:30;;;;;;;16.75;9.35;;;;;;;4.00;100.00;100698.50;5201139;28;20078;-71
2022/01/08 11:39:02;;;;;;;;;;;;;;;4.36;100.00;100697.22;5200972;28;20128;-72
2022/01/08 11:41:33;;;;;;;16.65;9.10;;;;;;;4.07;100.00;100678.25;5203011;28;20342;-72
2022/01/08 11:44:04;;;;;;;12.73;8.35;;;;;;;4.06;100.00;100674.00;5201062;28;20022;-72
2022/01/08 11:46:37;;;;;;;15.77;8.75;;;;;;;4.12;100.00;100661.47;5197238;28;20033;-71
2022/01/08 11:49:09;;;;;;;13.43;8.13;;;;;;;4.19;100.00;100661.94;5199899;28;20069;-71
2022/01/08 11:51:41;;;;;;;12.50;8.55;;;;;;;4.21;100.00;100657.50;5200364;28;20030;-72
2022/01/08 11:54:12;;;;;;;14.18;8.73;;;;;;;4.25;100.00;100647.78;5201018;28;20464;-72
2022/01/08 11:56:44;;;;;;;17.73;7.78;;;;;;;4.26;100.00;100642.47;5203035;28;20530;-73
2022/01/08 11:59:19;;;;;;;17.70;7.88;;;;;;;4.31;100.00;100634.41;5201079;28;20073;-71
2022/01/08 12:02:06;;;;;;;10.95;6.78;;;;;;;4.41;100.00;100626.91;5200612;28;20033;-71
2022/01/08 12:04:39;;;;;;;10.40;7.00;;;;;;;4.26;100.00;100632.13;5200213;28;20562;-72